sensor_id;sensor_type;location;lat;lon;timestamp;P1;durP1;ratioP1;P2;durP2;ratioP2
32810;SDS011;65470;47.324;8.548;2023-04-10T00:01:42;5.97;;;5.38;;
32810;SDS011;65470;47.324;8.548;2023-04-10T00:04:08;5.85;;;5.25;;
32810;SDS011;65470;47.324;8.548;2023-04-10T00:06:34;6.40;;;5.45;;
32810;SDS011;65470;47.324;8.548;2023-04-10T00:09:00;9.13;;;5.28;;
32810;SDS011;65470;47.324;8.548;2023-04-10T00:11:25;6.82;;;4.93;;
32810;SDS011;65470;47.324;8.548;2023-04-10T00:13:51;5.72;;;5.15;;
32810;SDS011;65470;47.324;8.548;2023-04-10T00:16:18;5.43;;;4.80;;
32810;SDS011;65470;47.324;8.548;2023-04-10T00:18:44;6.93;;;5.93;;
32810;SDS011;65470;47.324;8.548;2023-04-10T00:21:09;10.13;;;5.70;;
32810;SDS011;65470;47.324;8.548;2023-04-10T00:23:36;6.18;;;5.57;;
32810;SDS011;65470;47.324;8.548;2023-04-10T00:26:01;8.73;;;5.72;;
32810;SDS011;65470;47.324;8.548;2023-04-10T00:28:27;5.90;;;5.28;;
32810;SDS011;65470;47.324;8.548;2023-04-10T00:30:53;6.43;;;5.78;;
32810;SDS011;65470;47.324;8.548;2023-04-10T00:33:19;7.00;;;5.97;;
32810;SDS011;65470;47.324;8.548;2023-04-10T00:35:45;8.82;;;6.25;;
32810;SDS011;65470;47.324;8.548;2023-04-10T00:38:11;8.80;;;6.80;;
32810;SDS011;65470;47.324;8.548;2023-04-10T00:40:37;6.97;;;6.28;;
32810;SDS011;65470;47.324;8.548;2023-04-10T00:43:02;8.38;;;6.93;;
32810;SDS011;65470;47.324;8.548;2023-04-10T00:45:28;7.57;;;6.80;;
32810;SDS011;65470;47.324;8.548;2023-04-10T00:47:54;8.38;;;6.13;;
32810;SDS011;65470;47.324;8.548;2023-04-10T00:50:20;7.10;;;6.40;;
32810;SDS011;65470;47.324;8.548;2023-04-10T00:52:47;6.78;;;6.07;;
32810;SDS011;65470;47.324;8.548;2023-04-10T00:55:12;6.70;;;6.00;;
32810;SDS011;65470;47.324;8.548;2023-04-10T00:57:41;7.07;;;6.38;;
32810;SDS011;65470;47.324;8.548;2023-04-10T01:00:10;8.75;;;7.45;;
32810;SDS011;65470;47.324;8.548;2023-04-10T01:02:37;8.50;;;7.60;;
32810;SDS011;65470;47.324;8.548;2023-04-10T01:05:02;8.57;;;7.35;;
32810;SDS011;65470;47.324;8.548;2023-04-10T01:13:30;9.77;;;8.43;;
32810;SDS011;65470;47.324;8.548;2023-04-10T01:16:04;10.57;;;8.27;;
32810;SDS011;65470;47.324;8.548;2023-04-10T01:18:49;11.75;;;8.73;;
32810;SDS011;65470;47.324;8.548;2023-04-10T01:21:35;10.95;;;8.88;;
32810;SDS011;65470;47.324;8.548;2023-04-10T01:24:20;9.95;;;8.90;;
32810;SDS011;65470;47.324;8.548;2023-04-10T01:29:55;11.88;;;9.82;;
32810;SDS011;65470;47.324;8.548;2023-04-10T01:32:23;11.90;;;9.98;;
32810;SDS011;65470;47.324;8.548;2023-04-10T01:34:53;11.45;;;9.68;;
32810;SDS011;65470;47.324;8.548;2023-04-10T01:37:22;12.93;;;10.23;;
32810;SDS011;65470;47.324;8.548;2023-04-10T01:39:57;12.70;;;10.45;;
32810;SDS011;65470;47.324;8.548;2023-04-10T01:42:25;10.93;;;9.63;;
32810;SDS011;65470;47.324;8.548;2023-04-10T01:44:54;13.98;;;10.10;;
32810;SDS011;65470;47.324;8.548;2023-04-10T01:47:22;12.05;;;9.50;;
32810;SDS011;65470;47.324;8.548;2023-04-10T01:49:49;12.27;;;10.57;;
32810;SDS011;65470;47.324;8.548;2023-04-10T01:52:16;11.88;;;10.18;;
32810;SDS011;65470;47.324;8.548;2023-04-10T01:54:43;13.98;;;11.02;;
32810;SDS011;65470;47.324;8.548;2023-04-10T01:57:12;12.18;;;10.30;;
32810;SDS011;65470;47.324;8.548;2023-04-10T01:59:39;12.48;;;10.85;;
32810;SDS011;65470;47.324;8.548;2023-04-10T02:05:28;12.45;;;10.43;;
32810;SDS011;65470;47.324;8.548;2023-04-10T02:08:04;12.60;;;11.02;;
32810;SDS011;65470;47.324;8.548;2023-04-10T02:10:38;14.40;;;10.85;;
32810;SDS011;65470;47.324;8.548;2023-04-10T02:13:09;13.57;;;10.50;;
32810;SDS011;65470;47.324;8.548;2023-04-10T02:15:38;13.60;;;11.02;;
32810;SDS011;65470;47.324;8.548;2023-04-10T02:18:10;12.82;;;11.30;;
32810;SDS011;65470;47.324;8.548;2023-04-10T02:20:39;14.02;;;10.52;;
32810;SDS011;65470;47.324;8.548;2023-04-10T02:23:05;13.98;;;11.35;;
32810;SDS011;65470;47.324;8.548;2023-04-10T02:25:32;13.98;;;11.23;;
32810;SDS011;65470;47.324;8.548;2023-04-10T02:28:05;12.25;;;10.40;;
32810;SDS011;65470;47.324;8.548;2023-04-10T02:30:31;16.58;;;11.80;;
32810;SDS011;65470;47.324;8.548;2023-04-10T02:32:58;14.75;;;11.88;;
32810;SDS011;65470;47.324;8.548;2023-04-10T02:35:23;15.45;;;11.70;;
32810;SDS011;65470;47.324;8.548;2023-04-10T02:37:50;13.20;;;11.02;;
32810;SDS011;65470;47.324;8.548;2023-04-10T02:40:16;15.98;;;12.70;;
32810;SDS011;65470;47.324;8.548;2023-04-10T02:42:41;13.13;;;10.98;;
32810;SDS011;65470;47.324;8.548;2023-04-10T02:45:07;13.23;;;11.10;;
32810;SDS011;65470;47.324;8.548;2023-04-10T02:47:33;13.35;;;11.25;;
32810;SDS011;65470;47.324;8.548;2023-04-10T02:49:59;15.13;;;12.13;;
32810;SDS011;65470;47.324;8.548;2023-04-10T02:52:25;13.25;;;10.95;;
32810;SDS011;65470;47.324;8.548;2023-04-10T02:54:50;16.92;;;11.73;;
32810;SDS011;65470;47.324;8.548;2023-04-10T02:57:16;13.75;;;11.25;;
32810;SDS011;65470;47.324;8.548;2023-04-10T02:59:42;13.98;;;11.10;;
32810;SDS011;65470;47.324;8.548;2023-04-10T03:02:08;13.50;;;11.35;;
32810;SDS011;65470;47.324;8.548;2023-04-10T03:04:34;13.43;;;10.98;;
32810;SDS011;65470;47.324;8.548;2023-04-10T03:07:00;13.00;;;11.60;;
32810;SDS011;65470;47.324;8.548;2023-04-10T03:09:26;15.30;;;11.95;;
32810;SDS011;65470;47.324;8.548;2023-04-10T03:11:52;14.13;;;11.35;;
32810;SDS011;65470;47.324;8.548;2023-04-10T03:14:17;13.30;;;11.30;;
32810;SDS011;65470;47.324;8.548;2023-04-10T03:16:43;13.35;;;10.95;;
32810;SDS011;65470;47.324;8.548;2023-04-10T03:19:11;14.02;;;11.70;;
32810;SDS011;65470;47.324;8.548;2023-04-10T03:21:37;14.80;;;12.55;;
32810;SDS011;65470;47.324;8.548;2023-04-10T03:24:03;13.30;;;10.80;;
32810;SDS011;65470;47.324;8.548;2023-04-10T03:26:29;13.98;;;11.70;;
32810;SDS011;65470;47.324;8.548;2023-04-10T03:28:55;14.00;;;11.68;;
32810;SDS011;65470;47.324;8.548;2023-04-10T03:31:21;14.75;;;12.13;;
32810;SDS011;65470;47.324;8.548;2023-04-10T03:33:47;14.40;;;11.90;;
32810;SDS011;65470;47.324;8.548;2023-04-10T03:36:12;13.07;;;11.00;;
32810;SDS011;65470;47.324;8.548;2023-04-10T03:38:38;14.70;;;11.30;;
32810;SDS011;65470;47.324;8.548;2023-04-10T03:41:03;14.13;;;11.77;;
32810;SDS011;65470;47.324;8.548;2023-04-10T03:43:29;15.65;;;12.27;;
32810;SDS011;65470;47.324;8.548;2023-04-10T03:45:55;14.05;;;12.05;;
32810;SDS011;65470;47.324;8.548;2023-04-10T03:48:21;14.35;;;11.30;;
32810;SDS011;65470;47.324;8.548;2023-04-10T03:50:46;15.80;;;12.20;;
32810;SDS011;65470;47.324;8.548;2023-04-10T03:53:12;14.70;;;12.25;;
32810;SDS011;65470;47.324;8.548;2023-04-10T03:55:38;15.15;;;12.07;;
32810;SDS011;65470;47.324;8.548;2023-04-10T03:58:04;14.60;;;12.20;;
32810;SDS011;65470;47.324;8.548;2023-04-10T04:00:30;15.05;;;12.23;;
32810;SDS011;65470;47.324;8.548;2023-04-10T04:02:56;15.50;;;12.50;;
32810;SDS011;65470;47.324;8.548;2023-04-10T04:05:23;17.00;;;12.98;;
32810;SDS011;65470;47.324;8.548;2023-04-10T04:07:49;19.38;;;12.90;;
32810;SDS011;65470;47.324;8.548;2023-04-10T04:10:14;14.00;;;11.52;;
32810;SDS011;65470;47.324;8.548;2023-04-10T04:12:40;14.23;;;12.00;;
32810;SDS011;65470;47.324;8.548;2023-04-10T04:15:06;15.07;;;12.60;;
32810;SDS011;65470;47.324;8.548;2023-04-10T04:17:32;16.80;;;12.35;;
32810;SDS011;65470;47.324;8.548;2023-04-10T04:19:57;13.48;;;11.98;;
32810;SDS011;65470;47.324;8.548;2023-04-10T04:22:23;14.75;;;12.95;;
32810;SDS011;65470;47.324;8.548;2023-04-10T04:24:49;14.88;;;12.05;;
32810;SDS011;65470;47.324;8.548;2023-04-10T04:27:15;16.40;;;12.93;;
32810;SDS011;65470;47.324;8.548;2023-04-10T04:29:40;14.07;;;12.13;;
32810;SDS011;65470;47.324;8.548;2023-04-10T04:32:06;14.38;;;12.10;;
32810;SDS011;65470;47.324;8.548;2023-04-10T04:34:32;16.30;;;12.65;;
32810;SDS011;65470;47.324;8.548;2023-04-10T04:36:57;13.43;;;11.50;;
32810;SDS011;65470;47.324;8.548;2023-04-10T04:39:23;16.02;;;12.32;;
32810;SDS011;65470;47.324;8.548;2023-04-10T04:41:48;15.18;;;12.05;;
32810;SDS011;65470;47.324;8.548;2023-04-10T04:44:14;16.20;;;12.70;;
32810;SDS011;65470;47.324;8.548;2023-04-10T04:46:40;14.43;;;11.88;;
32810;SDS011;65470;47.324;8.548;2023-04-10T04:49:05;14.95;;;12.00;;
32810;SDS011;65470;47.324;8.548;2023-04-10T04:51:31;16.40;;;12.65;;
32810;SDS011;65470;47.324;8.548;2023-04-10T04:53:56;13.23;;;11.20;;
32810;SDS011;65470;47.324;8.548;2023-04-10T04:56:22;17.35;;;11.95;;
32810;SDS011;65470;47.324;8.548;2023-04-10T04:58:48;14.85;;;11.82;;
32810;SDS011;65470;47.324;8.548;2023-04-10T05:01:13;16.08;;;11.32;;
32810;SDS011;65470;47.324;8.548;2023-04-10T05:03:39;13.60;;;11.80;;
32810;SDS011;65470;47.324;8.548;2023-04-10T05:06:05;13.50;;;12.00;;
32810;SDS011;65470;47.324;8.548;2023-04-10T05:08:31;14.35;;;11.52;;
32810;SDS011;65470;47.324;8.548;2023-04-10T05:10:57;14.80;;;11.68;;
32810;SDS011;65470;47.324;8.548;2023-04-10T05:13:22;15.65;;;12.57;;
32810;SDS011;65470;47.324;8.548;2023-04-10T05:15:48;13.63;;;10.82;;
32810;SDS011;65470;47.324;8.548;2023-04-10T05:18:14;15.13;;;11.65;;
32810;SDS011;65470;47.324;8.548;2023-04-10T05:20:43;14.43;;;11.82;;
32810;SDS011;65470;47.324;8.548;2023-04-10T05:23:11;15.52;;;11.25;;
32810;SDS011;65470;47.324;8.548;2023-04-10T05:25:36;14.93;;;11.20;;
32810;SDS011;65470;47.324;8.548;2023-04-10T05:28:02;13.85;;;11.90;;
32810;SDS011;65470;47.324;8.548;2023-04-10T05:30:28;14.10;;;11.38;;
32810;SDS011;65470;47.324;8.548;2023-04-10T05:32:53;13.80;;;11.30;;
32810;SDS011;65470;47.324;8.548;2023-04-10T05:35:19;14.25;;;11.27;;
32810;SDS011;65470;47.324;8.548;2023-04-10T05:37:44;16.80;;;11.85;;
32810;SDS011;65470;47.324;8.548;2023-04-10T05:40:10;13.70;;;10.20;;
32810;SDS011;65470;47.324;8.548;2023-04-10T05:42:36;15.95;;;11.13;;
32810;SDS011;65470;47.324;8.548;2023-04-10T05:45:01;12.07;;;10.65;;
32810;SDS011;65470;47.324;8.548;2023-04-10T05:47:27;12.05;;;10.40;;
32810;SDS011;65470;47.324;8.548;2023-04-10T05:49:53;12.20;;;10.90;;
32810;SDS011;65470;47.324;8.548;2023-04-10T05:52:18;12.35;;;10.60;;
32810;SDS011;65470;47.324;8.548;2023-04-10T05:54:44;13.23;;;11.10;;
32810;SDS011;65470;47.324;8.548;2023-04-10T05:57:09;12.75;;;11.43;;
32810;SDS011;65470;47.324;8.548;2023-04-10T05:59:35;15.10;;;11.63;;
32810;SDS011;65470;47.324;8.548;2023-04-10T06:02:00;13.00;;;10.25;;
32810;SDS011;65470;47.324;8.548;2023-04-10T06:04:26;11.95;;;10.43;;
32810;SDS011;65470;47.324;8.548;2023-04-10T06:06:52;13.88;;;10.88;;
32810;SDS011;65470;47.324;8.548;2023-04-10T06:09:18;12.57;;;11.27;;
32810;SDS011;65470;47.324;8.548;2023-04-10T06:11:43;11.93;;;10.25;;
32810;SDS011;65470;47.324;8.548;2023-04-10T06:14:09;11.82;;;9.93;;
32810;SDS011;65470;47.324;8.548;2023-04-10T06:16:35;11.90;;;10.23;;
32810;SDS011;65470;47.324;8.548;2023-04-10T06:19:00;10.65;;;9.52;;
32810;SDS011;65470;47.324;8.548;2023-04-10T06:21:26;10.55;;;9.10;;
32810;SDS011;65470;47.324;8.548;2023-04-10T06:23:51;10.98;;;9.75;;
32810;SDS011;65470;47.324;8.548;2023-04-10T06:26:17;12.02;;;9.48;;
32810;SDS011;65470;47.324;8.548;2023-04-10T06:28:43;11.65;;;10.20;;
32810;SDS011;65470;47.324;8.548;2023-04-10T06:31:09;12.18;;;10.98;;
32810;SDS011;65470;47.324;8.548;2023-04-10T06:33:34;11.52;;;10.35;;
32810;SDS011;65470;47.324;8.548;2023-04-10T06:36:00;12.85;;;11.50;;
32810;SDS011;65470;47.324;8.548;2023-04-10T06:38:26;13.07;;;11.68;;
32810;SDS011;65470;47.324;8.548;2023-04-10T06:40:52;12.43;;;11.23;;
32810;SDS011;65470;47.324;8.548;2023-04-10T06:43:17;14.05;;;12.63;;
32810;SDS011;65470;47.324;8.548;2023-04-10T06:45:43;13.50;;;12.10;;
32810;SDS011;65470;47.324;8.548;2023-04-10T06:48:11;13.30;;;11.90;;
32810;SDS011;65470;47.324;8.548;2023-04-10T06:50:37;14.30;;;12.80;;
32810;SDS011;65470;47.324;8.548;2023-04-10T06:53:02;13.50;;;12.10;;
32810;SDS011;65470;47.324;8.548;2023-04-10T06:55:28;15.25;;;12.90;;
32810;SDS011;65470;47.324;8.548;2023-04-10T06:57:54;14.05;;;12.70;;
32810;SDS011;65470;47.324;8.548;2023-04-10T07:00:21;14.73;;;13.23;;
32810;SDS011;65470;47.324;8.548;2023-04-10T07:02:47;13.80;;;12.40;;
32810;SDS011;65470;47.324;8.548;2023-04-10T07:05:13;14.98;;;12.98;;
32810;SDS011;65470;47.324;8.548;2023-04-10T07:07:40;14.55;;;13.05;;
32810;SDS011;65470;47.324;8.548;2023-04-10T07:10:05;12.88;;;11.68;;
32810;SDS011;65470;47.324;8.548;2023-04-10T07:12:32;12.70;;;11.40;;
32810;SDS011;65470;47.324;8.548;2023-04-10T07:14:57;14.75;;;11.85;;
32810;SDS011;65470;47.324;8.548;2023-04-10T07:17:23;12.73;;;11.48;;
32810;SDS011;65470;47.324;8.548;2023-04-10T07:19:49;12.88;;;11.57;;
32810;SDS011;65470;47.324;8.548;2023-04-10T07:22:15;13.13;;;11.63;;
32810;SDS011;65470;47.324;8.548;2023-04-10T07:24:40;13.25;;;11.95;;
32810;SDS011;65470;47.324;8.548;2023-04-10T07:27:06;13.00;;;11.73;;
32810;SDS011;65470;47.324;8.548;2023-04-10T07:29:32;12.45;;;11.25;;
32810;SDS011;65470;47.324;8.548;2023-04-10T07:31:58;11.77;;;10.63;;
32810;SDS011;65470;47.324;8.548;2023-04-10T07:34:24;12.10;;;10.98;;
32810;SDS011;65470;47.324;8.548;2023-04-10T07:36:50;11.73;;;10.63;;
32810;SDS011;65470;47.324;8.548;2023-04-10T07:39:16;11.60;;;10.43;;
32810;SDS011;65470;47.324;8.548;2023-04-10T07:41:42;10.88;;;9.88;;
32810;SDS011;65470;47.324;8.548;2023-04-10T07:44:08;10.05;;;9.05;;
32810;SDS011;65470;47.324;8.548;2023-04-10T07:46:34;10.07;;;9.23;;
32810;SDS011;65470;47.324;8.548;2023-04-10T07:49:00;10.43;;;9.35;;
32810;SDS011;65470;47.324;8.548;2023-04-10T07:51:25;10.45;;;9.55;;
32810;SDS011;65470;47.324;8.548;2023-04-10T07:53:51;10.32;;;9.32;;
32810;SDS011;65470;47.324;8.548;2023-04-10T07:56:17;10.35;;;9.45;;
32810;SDS011;65470;47.324;8.548;2023-04-10T07:58:44;11.05;;;9.95;;
32810;SDS011;65470;47.324;8.548;2023-04-10T08:01:10;10.00;;;9.10;;
32810;SDS011;65470;47.324;8.548;2023-04-10T08:03:36;9.93;;;9.00;;
32810;SDS011;65470;47.324;8.548;2023-04-10T08:06:06;9.68;;;8.68;;
32810;SDS011;65470;47.324;8.548;2023-04-10T08:08:36;9.90;;;9.00;;
32810;SDS011;65470;47.324;8.548;2023-04-10T08:11:05;8.98;;;8.18;;
32810;SDS011;65470;47.324;8.548;2023-04-10T08:13:32;18.42;;;9.77;;
32810;SDS011;65470;47.324;8.548;2023-04-10T08:15:58;9.63;;;8.73;;
32810;SDS011;65470;47.324;8.548;2023-04-10T08:18:24;10.30;;;9.40;;
32810;SDS011;65470;47.324;8.548;2023-04-10T08:20:49;9.40;;;8.50;;
32810;SDS011;65470;47.324;8.548;2023-04-10T08:23:15;8.73;;;7.93;;
32810;SDS011;65470;47.324;8.548;2023-04-10T08:25:41;10.07;;;9.07;;
32810;SDS011;65470;47.324;8.548;2023-04-10T08:28:06;10.23;;;9.32;;
32810;SDS011;65470;47.324;8.548;2023-04-10T08:30:32;9.43;;;8.60;;
32810;SDS011;65470;47.324;8.548;2023-04-10T08:32:57;8.65;;;7.75;;
32810;SDS011;65470;47.324;8.548;2023-04-10T08:35:23;8.75;;;8.00;;
32810;SDS011;65470;47.324;8.548;2023-04-10T08:37:48;8.85;;;8.05;;
32810;SDS011;65470;47.324;8.548;2023-04-10T08:40:14;8.45;;;7.68;;
32810;SDS011;65470;47.324;8.548;2023-04-10T08:42:40;7.43;;;6.82;;
32810;SDS011;65470;47.324;8.548;2023-04-10T08:45:05;7.88;;;7.18;;
32810;SDS011;65470;47.324;8.548;2023-04-10T08:47:33;8.85;;;7.95;;
32810;SDS011;65470;47.324;8.548;2023-04-10T08:50:06;8.45;;;7.75;;
32810;SDS011;65470;47.324;8.548;2023-04-10T08:52:34;8.48;;;7.75;;
32810;SDS011;65470;47.324;8.548;2023-04-10T08:55:06;7.93;;;7.22;;
32810;SDS011;65470;47.324;8.548;2023-04-10T08:57:33;8.77;;;7.88;;
32810;SDS011;65470;47.324;8.548;2023-04-10T09:00:02;8.75;;;7.95;;
32810;SDS011;65470;47.324;8.548;2023-04-10T09:02:28;7.93;;;7.22;;
32810;SDS011;65470;47.324;8.548;2023-04-10T09:04:53;7.63;;;6.95;;
32810;SDS011;65470;47.324;8.548;2023-04-10T09:07:22;8.77;;;7.63;;
32810;SDS011;65470;47.324;8.548;2023-04-10T09:09:48;8.60;;;7.90;;
32810;SDS011;65470;47.324;8.548;2023-04-10T09:12:14;8.05;;;7.35;;
32810;SDS011;65470;47.324;8.548;2023-04-10T09:14:41;7.18;;;6.57;;
32810;SDS011;65470;47.324;8.548;2023-04-10T09:17:22;7.25;;;6.65;;
32810;SDS011;65470;47.324;8.548;2023-04-10T09:19:52;8.00;;;7.30;;
32810;SDS011;65470;47.324;8.548;2023-04-10T09:22:32;8.30;;;7.30;;
32810;SDS011;65470;47.324;8.548;2023-04-10T09:24:59;8.20;;;7.50;;
32810;SDS011;65470;47.324;8.548;2023-04-10T09:27:26;7.90;;;7.20;;
32810;SDS011;65470;47.324;8.548;2023-04-10T09:29:55;8.20;;;7.47;;
32810;SDS011;65470;47.324;8.548;2023-04-10T09:35:02;8.35;;;7.65;;
32810;SDS011;65470;47.324;8.548;2023-04-10T09:37:32;7.75;;;7.05;;
32810;SDS011;65470;47.324;8.548;2023-04-10T09:40:01;7.90;;;7.15;;
32810;SDS011;65470;47.324;8.548;2023-04-10T09:42:31;6.80;;;6.30;;
32810;SDS011;65470;47.324;8.548;2023-04-10T09:45:01;6.97;;;6.43;;
32810;SDS011;65470;47.324;8.548;2023-04-10T09:47:28;6.10;;;5.60;;
32810;SDS011;65470;47.324;8.548;2023-04-10T09:49:57;6.93;;;6.32;;
32810;SDS011;65470;47.324;8.548;2023-04-10T09:52:31;7.00;;;6.40;;
32810;SDS011;65470;47.324;8.548;2023-04-10T09:54:59;7.38;;;6.78;;
32810;SDS011;65470;47.324;8.548;2023-04-10T09:57:26;7.25;;;6.55;;
32810;SDS011;65470;47.324;8.548;2023-04-10T09:59:54;6.90;;;5.97;;
32810;SDS011;65470;47.324;8.548;2023-04-10T10:02:22;6.72;;;6.05;;
32810;SDS011;65470;47.324;8.548;2023-04-10T10:04:50;6.80;;;6.20;;
32810;SDS011;65470;47.324;8.548;2023-04-10T10:07:18;6.82;;;6.13;;
32810;SDS011;65470;47.324;8.548;2023-04-10T10:09:45;6.40;;;5.88;;
32810;SDS011;65470;47.324;8.548;2023-04-10T10:12:17;8.15;;;7.35;;
32810;SDS011;65470;47.324;8.548;2023-04-10T10:17:23;6.97;;;6.30;;
32810;SDS011;65470;47.324;8.548;2023-04-10T10:20:15;6.65;;;6.15;;
32810;SDS011;65470;47.324;8.548;2023-04-10T10:22:41;6.50;;;5.95;;
32810;SDS011;65470;47.324;8.548;2023-04-10T10:25:08;6.63;;;6.13;;
32810;SDS011;65470;47.324;8.548;2023-04-10T10:27:35;7.10;;;6.40;;
32810;SDS011;65470;47.324;8.548;2023-04-10T10:30:02;7.25;;;6.55;;
32810;SDS011;65470;47.324;8.548;2023-04-10T10:32:30;7.00;;;6.30;;
32810;SDS011;65470;47.324;8.548;2023-04-10T10:34:56;7.03;;;6.43;;
32810;SDS011;65470;47.324;8.548;2023-04-10T10:37:21;7.28;;;6.68;;
32810;SDS011;65470;47.324;8.548;2023-04-10T10:42:47;6.78;;;6.18;;
32810;SDS011;65470;47.324;8.548;2023-04-10T10:45:20;6.18;;;5.68;;
32810;SDS011;65470;47.324;8.548;2023-04-10T10:47:54;6.40;;;5.90;;
32810;SDS011;65470;47.324;8.548;2023-04-10T10:50:20;7.78;;;7.07;;
32810;SDS011;65470;47.324;8.548;2023-04-10T10:52:50;6.53;;;5.97;;
32810;SDS011;65470;47.324;8.548;2023-04-10T10:57:47;6.55;;;5.97;;
32810;SDS011;65470;47.324;8.548;2023-04-10T11:00:14;6.25;;;5.60;;
32810;SDS011;65470;47.324;8.548;2023-04-10T11:02:40;6.28;;;5.72;;
32810;SDS011;65470;47.324;8.548;2023-04-10T11:05:06;6.13;;;5.63;;
32810;SDS011;65470;47.324;8.548;2023-04-10T11:13:30;6.45;;;5.95;;
32810;SDS011;65470;47.324;8.548;2023-04-10T11:15:56;6.68;;;6.18;;
32810;SDS011;65470;47.324;8.548;2023-04-10T11:21:20;5.95;;;5.45;;
32810;SDS011;65470;47.324;8.548;2023-04-10T11:31:38;6.30;;;5.70;;
32810;SDS011;65470;47.324;8.548;2023-04-10T11:36:32;6.45;;;5.95;;
32810;SDS011;65470;47.324;8.548;2023-04-10T11:39:03;6.97;;;5.63;;
32810;SDS011;65470;47.324;8.548;2023-04-10T11:41:32;6.82;;;6.18;;
32810;SDS011;65470;47.324;8.548;2023-04-10T11:44:02;6.43;;;5.93;;
32810;SDS011;65470;47.324;8.548;2023-04-10T11:46:29;6.80;;;6.30;;
32810;SDS011;65470;47.324;8.548;2023-04-10T11:48:57;6.65;;;6.05;;
32810;SDS011;65470;47.324;8.548;2023-04-10T11:51:24;7.20;;;6.60;;
32810;SDS011;65470;47.324;8.548;2023-04-10T11:56:59;6.32;;;5.72;;
32810;SDS011;65470;47.324;8.548;2023-04-10T11:59:29;6.10;;;5.50;;
32810;SDS011;65470;47.324;8.548;2023-04-10T12:02:09;6.65;;;5.53;;
32810;SDS011;65470;47.324;8.548;2023-04-10T12:04:40;6.03;;;5.43;;
32810;SDS011;65470;47.324;8.548;2023-04-10T12:07:07;6.13;;;5.60;;
32810;SDS011;65470;47.324;8.548;2023-04-10T12:09:33;6.20;;;5.70;;
32810;SDS011;65470;47.324;8.548;2023-04-10T12:12:00;5.25;;;4.85;;
32810;SDS011;65470;47.324;8.548;2023-04-10T12:14:37;5.25;;;4.75;;
32810;SDS011;65470;47.324;8.548;2023-04-10T12:17:08;5.50;;;4.97;;
32810;SDS011;65470;47.324;8.548;2023-04-10T12:19:35;4.63;;;4.00;;
32810;SDS011;65470;47.324;8.548;2023-04-10T12:22:03;4.22;;;3.83;;
32810;SDS011;65470;47.324;8.548;2023-04-10T12:27:08;3.88;;;3.47;;
32810;SDS011;65470;47.324;8.548;2023-04-10T12:29:44;3.90;;;3.60;;
32810;SDS011;65470;47.324;8.548;2023-04-10T12:32:13;3.85;;;3.55;;
32810;SDS011;65470;47.324;8.548;2023-04-10T12:34:39;4.00;;;3.70;;
32810;SDS011;65470;47.324;8.548;2023-04-10T12:37:05;4.15;;;3.85;;
32810;SDS011;65470;47.324;8.548;2023-04-10T12:39:31;4.35;;;4.05;;
32810;SDS011;65470;47.324;8.548;2023-04-10T12:42:16;4.50;;;4.13;;
32810;SDS011;65470;47.324;8.548;2023-04-10T12:44:52;4.78;;;4.07;;
32810;SDS011;65470;47.324;8.548;2023-04-10T12:47:23;4.00;;;3.70;;
32810;SDS011;65470;47.324;8.548;2023-04-10T12:50:08;4.45;;;4.03;;
32810;SDS011;65470;47.324;8.548;2023-04-10T12:52:36;4.43;;;4.07;;
32810;SDS011;65470;47.324;8.548;2023-04-10T12:55:16;4.25;;;3.63;;
32810;SDS011;65470;47.324;8.548;2023-04-10T12:57:44;4.22;;;3.92;;
32810;SDS011;65470;47.324;8.548;2023-04-10T13:00:11;4.53;;;3.58;;
32810;SDS011;65470;47.324;8.548;2023-04-10T13:02:39;4.03;;;3.72;;
32810;SDS011;65470;47.324;8.548;2023-04-10T13:05:05;4.35;;;4.05;;
32810;SDS011;65470;47.324;8.548;2023-04-10T13:07:31;4.45;;;4.05;;
32810;SDS011;65470;47.324;8.548;2023-04-10T13:09:57;4.53;;;4.15;;
32810;SDS011;65470;47.324;8.548;2023-04-10T13:12:23;4.70;;;4.30;;
32810;SDS011;65470;47.324;8.548;2023-04-10T13:14:50;5.05;;;4.65;;
32810;SDS011;65470;47.324;8.548;2023-04-10T13:17:23;5.05;;;4.60;;
32810;SDS011;65470;47.324;8.548;2023-04-10T13:19:49;6.05;;;4.57;;
32810;SDS011;65470;47.324;8.548;2023-04-10T13:22:15;4.75;;;4.35;;
32810;SDS011;65470;47.324;8.548;2023-04-10T13:24:41;4.57;;;4.18;;
32810;SDS011;65470;47.324;8.548;2023-04-10T13:27:07;5.97;;;5.35;;
32810;SDS011;65470;47.324;8.548;2023-04-10T13:29:37;5.40;;;4.70;;
32810;SDS011;65470;47.324;8.548;2023-04-10T13:32:06;4.40;;;4.10;;
32810;SDS011;65470;47.324;8.548;2023-04-10T13:34:32;5.07;;;4.68;;
32810;SDS011;65470;47.324;8.548;2023-04-10T13:36:58;4.50;;;3.85;;
32810;SDS011;65470;47.324;8.548;2023-04-10T13:39:24;4.75;;;4.35;;
32810;SDS011;65470;47.324;8.548;2023-04-10T13:41:52;4.53;;;4.10;;
32810;SDS011;65470;47.324;8.548;2023-04-10T13:44:17;4.13;;;3.78;;
32810;SDS011;65470;47.324;8.548;2023-04-10T13:46:43;4.35;;;3.90;;
32810;SDS011;65470;47.324;8.548;2023-04-10T13:49:08;4.53;;;4.07;;
32810;SDS011;65470;47.324;8.548;2023-04-10T13:51:34;3.65;;;3.45;;
32810;SDS011;65470;47.324;8.548;2023-04-10T13:54:00;3.97;;;3.67;;
32810;SDS011;65470;47.324;8.548;2023-04-10T13:56:28;3.83;;;3.53;;
32810;SDS011;65470;47.324;8.548;2023-04-10T13:58:54;4.72;;;4.32;;
32810;SDS011;65470;47.324;8.548;2023-04-10T14:01:20;4.00;;;3.60;;
32810;SDS011;65470;47.324;8.548;2023-04-10T14:03:45;3.88;;;3.58;;
32810;SDS011;65470;47.324;8.548;2023-04-10T14:06:11;3.75;;;3.45;;
32810;SDS011;65470;47.324;8.548;2023-04-10T14:08:38;4.50;;;3.60;;
32810;SDS011;65470;47.324;8.548;2023-04-10T14:11:03;3.97;;;3.67;;
32810;SDS011;65470;47.324;8.548;2023-04-10T14:13:29;3.40;;;3.10;;
32810;SDS011;65470;47.324;8.548;2023-04-10T14:15:55;3.45;;;3.15;;
32810;SDS011;65470;47.324;8.548;2023-04-10T14:18:20;3.88;;;3.50;;
32810;SDS011;65470;47.324;8.548;2023-04-10T14:20:46;4.07;;;3.75;;
32810;SDS011;65470;47.324;8.548;2023-04-10T14:23:12;4.90;;;3.75;;
32810;SDS011;65470;47.324;8.548;2023-04-10T14:25:42;3.90;;;3.50;;
32810;SDS011;65470;47.324;8.548;2023-04-10T14:28:11;4.95;;;3.40;;
32810;SDS011;65470;47.324;8.548;2023-04-10T14:30:45;3.67;;;3.38;;
32810;SDS011;65470;47.324;8.548;2023-04-10T14:33:13;3.92;;;3.40;;
32810;SDS011;65470;47.324;8.548;2023-04-10T14:35:39;3.50;;;3.20;;
32810;SDS011;65470;47.324;8.548;2023-04-10T14:38:05;3.63;;;3.33;;
32810;SDS011;65470;47.324;8.548;2023-04-10T14:40:31;4.10;;;3.45;;
32810;SDS011;65470;47.324;8.548;2023-04-10T14:42:57;3.80;;;3.50;;
32810;SDS011;65470;47.324;8.548;2023-04-10T14:45:22;3.40;;;3.10;;
32810;SDS011;65470;47.324;8.548;2023-04-10T14:47:49;3.45;;;3.15;;
32810;SDS011;65470;47.324;8.548;2023-04-10T14:50:15;4.30;;;3.25;;
32810;SDS011;65470;47.324;8.548;2023-04-10T14:52:41;3.60;;;3.30;;
32810;SDS011;65470;47.324;8.548;2023-04-10T14:55:07;3.67;;;3.38;;
32810;SDS011;65470;47.324;8.548;2023-04-10T14:57:33;3.20;;;2.90;;
32810;SDS011;65470;47.324;8.548;2023-04-10T14:59:58;3.75;;;3.45;;
32810;SDS011;65470;47.324;8.548;2023-04-10T15:02:25;3.85;;;3.55;;
32810;SDS011;65470;47.324;8.548;2023-04-10T15:04:51;3.83;;;3.53;;
32810;SDS011;65470;47.324;8.548;2023-04-10T15:07:16;3.10;;;2.90;;
32810;SDS011;65470;47.324;8.548;2023-04-10T15:09:42;3.60;;;3.25;;
32810;SDS011;65470;47.324;8.548;2023-04-10T15:12:08;3.47;;;3.17;;
32810;SDS011;65470;47.324;8.548;2023-04-10T15:14:34;3.80;;;3.50;;
32810;SDS011;65470;47.324;8.548;2023-04-10T15:17:00;3.85;;;3.55;;
32810;SDS011;65470;47.324;8.548;2023-04-10T15:19:25;4.00;;;3.67;;
32810;SDS011;65470;47.324;8.548;2023-04-10T15:21:52;3.65;;;3.35;;
32810;SDS011;65470;47.324;8.548;2023-04-10T15:24:18;3.97;;;3.58;;